createdAt,value
2022-09-02T00:01:24.880Z,79.26
2022-09-02T00:03:55.114Z,79.71
2022-09-02T00:06:21.707Z,79.50
2022-09-02T00:08:48.271Z,79.88
2022-09-02T00:11:18.268Z,79.43
2022-09-02T00:13:45.757Z,79.56
2022-09-02T00:16:12.780Z,79.36
2022-09-02T00:18:44.930Z,79.87
2022-09-02T00:21:14.278Z,79.72
2022-09-02T00:23:42.549Z,79.81
2022-09-02T00:26:09.677Z,79.50
2022-09-02T00:28:36.538Z,79.50
2022-09-02T00:31:03.142Z,78.92
2022-09-02T00:33:31.624Z,79.40
2022-09-02T00:36:04.608Z,79.48
2022-09-02T00:38:35.626Z,80.02
2022-09-02T00:41:05.905Z,79.77
2022-09-02T00:43:55.626Z,79.49
2022-09-02T00:46:25.138Z,79.80
2022-09-02T00:49:16.210Z,78.90
2022-09-02T00:52:05.687Z,78.65
2022-09-02T00:54:34.840Z,79.59
2022-09-02T00:57:01.836Z,79.43
2022-09-02T00:59:40.572Z,78.95
2022-09-02T01:02:08.293Z,79.01
2022-09-02T01:04:35.408Z,79.58
2022-09-02T01:07:03.381Z,79.37
2022-09-02T01:09:33.428Z,79.10
2022-09-02T01:12:03.175Z,79.32
2022-09-02T01:14:30.468Z,79.64
2022-09-02T01:17:02.746Z,79.61
2022-09-02T01:19:36.737Z,79.01
2022-09-02T01:22:06.515Z,79.48
2022-09-02T01:24:34.781Z,79.03
2022-09-02T01:27:01.491Z,79.65
2022-09-02T01:29:29.266Z,79.72
2022-09-02T01:31:56.062Z,80.01
2022-09-02T01:34:22.921Z,79.63
2022-09-02T01:36:49.698Z,79.69
2022-09-02T01:39:16.742Z,79.69
2022-09-02T01:41:43.580Z,80.22
2022-09-02T01:44:10.757Z,79.76
2022-09-02T01:46:37.758Z,79.67
2022-09-02T01:49:05.095Z,79.47
2022-09-02T01:51:31.944Z,79.79
2022-09-02T01:53:58.636Z,80.33
2022-09-02T01:56:25.261Z,80.62
2022-09-02T01:58:51.813Z,80.46
2022-09-02T02:01:19.532Z,80.03
2022-09-02T02:03:46.348Z,80.15
2022-09-02T02:06:16.538Z,80.62
2022-09-02T02:08:44.276Z,80.21
2022-09-02T02:11:11.345Z,80.21
2022-09-02T02:13:38.697Z,80.44
2022-09-02T02:16:06.353Z,80.26
2022-09-02T02:18:33.070Z,79.97
2022-09-02T02:20:59.656Z,80.38
2022-09-02T02:23:26.248Z,80.02
2022-09-02T02:25:52.931Z,80.17
2022-09-02T02:28:19.593Z,79.96
2022-09-02T02:30:46.346Z,80.15
2022-09-02T02:33:13.637Z,80.54
2022-09-02T02:35:41.335Z,80.08
2022-09-02T02:38:08.524Z,80.20
2022-09-02T02:40:35.230Z,80.26
2022-09-02T02:43:01.904Z,80.23
2022-09-02T02:45:29.633Z,80.18
2022-09-02T02:47:56.221Z,80.22
2022-09-02T02:50:23.585Z,80.37
2022-09-02T02:52:50.942Z,80.65
2022-09-02T02:55:17.963Z,80.27
2022-09-02T02:57:44.979Z,80.67
2022-09-02T03:00:13.975Z,80.49
2022-09-02T03:02:40.940Z,80.80
2022-09-02T03:05:09.979Z,81.02
2022-09-02T03:07:36.545Z,81.03
2022-09-02T03:10:08.328Z,80.96
2022-09-02T03:12:37.273Z,80.97
2022-09-02T03:15:04.804Z,81.38
2022-09-02T03:17:31.530Z,81.62
2022-09-02T03:19:59.198Z,81.56
2022-09-02T03:22:27.714Z,81.25
2022-09-02T03:24:54.506Z,81.14
2022-09-02T03:27:21.090Z,80.96
2022-09-02T03:29:47.682Z,81.12
2022-09-02T03:32:14.857Z,81.12
2022-09-02T03:34:42.438Z,81.10
2022-09-02T03:37:09.445Z,81.41
2022-09-02T03:39:38.510Z,81.42
2022-09-02T03:42:05.641Z,81.71
2022-09-02T03:44:34.287Z,81.60
2022-09-02T03:47:01.057Z,81.73
2022-09-02T03:49:28.286Z,81.60
2022-09-02T03:51:55.131Z,81.65
2022-09-02T03:54:21.751Z,82.16
2022-09-02T03:56:48.717Z,81.64
2022-09-02T03:59:15.294Z,82.09
2022-09-02T04:01:42.331Z,82.15
2022-09-02T04:04:09.080Z,81.76
2022-09-02T04:06:35.898Z,81.89
2022-09-02T04:09:03.281Z,81.95
2022-09-02T04:11:30.162Z,82.45
2022-09-02T04:13:56.803Z,82.38
2022-09-02T04:16:31.687Z,82.55
2022-09-02T04:19:02.025Z,82.35
2022-09-02T04:21:31.938Z,81.98
2022-09-02T04:23:58.480Z,81.92
2022-09-02T04:26:25.026Z,82.33
2022-09-02T04:28:52.004Z,81.80
2022-09-02T04:31:20.953Z,82.02
2022-09-02T04:33:48.595Z,81.92
2022-09-02T04:36:18.539Z,81.62
2022-09-02T04:38:47.808Z,81.15
2022-09-02T04:41:22.893Z,81.40
2022-09-02T04:43:51.439Z,81.38
2022-09-02T04:46:19.039Z,81.65
2022-09-02T04:48:55.084Z,82.13
2022-09-02T04:51:25.293Z,82.10
2022-09-02T04:53:53.487Z,82.66
2022-09-02T04:56:25.592Z,82.94
2022-09-02T04:58:53.297Z,83.16
2022-09-02T05:01:26.111Z,83.19
2022-09-02T05:03:54.114Z,84.02
2022-09-02T05:06:23.854Z,83.94
2022-09-02T05:08:50.583Z,84.59
2022-09-02T05:11:20.370Z,84.78
2022-09-02T05:13:54.315Z,84.73
2022-09-02T05:16:27.749Z,84.87
2022-09-02T05:18:54.765Z,84.73
2022-09-02T05:21:23.152Z,85.40
2022-09-02T05:23:54.489Z,85.12
2022-09-02T05:26:22.138Z,85.36
2022-09-02T05:28:48.698Z,85.64
2022-09-02T05:31:17.936Z,85.47
2022-09-02T05:33:45.352Z,85.83
2022-09-02T05:36:19.145Z,86.14
2022-09-02T05:38:45.895Z,86.13
2022-09-02T05:41:16.071Z,86.49
2022-09-02T05:43:48.363Z,86.66
2022-09-02T05:46:17.998Z,86.58
2022-09-02T05:49:04.261Z,87.58
2022-09-02T05:51:30.935Z,87.54
2022-09-02T05:53:59.257Z,88.02
2022-09-02T05:56:27.596Z,88.60
2022-09-02T05:58:58.827Z,88.42
2022-09-02T06:01:27.318Z,89.16
2022-09-02T06:03:53.852Z,89.64
2022-09-02T06:06:22.994Z,89.59
2022-09-02T06:08:49.736Z,89.82
2022-09-02T06:11:18.087Z,89.72
2022-09-02T06:13:44.861Z,90.73
2022-09-02T06:16:15.269Z,91.05
2022-09-02T06:18:42.660Z,91.42
2022-09-02T06:21:09.806Z,92.27
2022-09-02T06:23:39.109Z,92.88
2022-09-02T06:26:09.712Z,92.81
2022-09-02T06:28:36.716Z,93.53
2022-09-02T06:31:13.290Z,93.49
2022-09-02T06:33:39.925Z,94.81
2022-09-02T06:36:08.162Z,94.68
2022-09-02T06:38:45.964Z,94.67
2022-09-02T06:41:19.730Z,94.52
2022-09-02T06:43:46.427Z,94.59
2022-09-02T06:46:22.228Z,95.06
2022-09-02T06:48:50.260Z,95.84
2022-09-02T06:51:22.432Z,96.04
2022-09-02T06:53:48.996Z,95.97
2022-09-02T06:56:15.821Z,96.88
2022-09-02T06:58:42.477Z,96.58
2022-09-02T07:01:17.103Z,96.89
2022-09-02T07:04:02.100Z,97.50
2022-09-02T07:06:28.727Z,97.18
2022-09-02T07:08:55.246Z,97.40
2022-09-02T07:11:23.985Z,96.35
2022-09-02T07:13:50.977Z,93.83
2022-09-02T07:16:22.713Z,94.50
2022-09-02T07:18:53.715Z,89.63
2022-09-02T07:21:20.463Z,86.96
2022-09-02T07:23:47.051Z,83.82
2022-09-02T07:26:15.544Z,80.67
2022-09-02T07:28:43.247Z,80.06
2022-09-02T07:31:16.002Z,79.41
2022-09-02T07:33:45.084Z,78.16
2022-09-02T07:36:16.754Z,78.35
2022-09-02T07:38:43.355Z,77.08
2022-09-02T07:41:10.694Z,76.26
2022-09-02T07:43:38.756Z,75.38
2022-09-02T07:46:06.152Z,74.57
2022-09-02T07:48:33.967Z,74.89
2022-09-02T07:51:01.153Z,74.58
2022-09-02T07:53:28.422Z,73.98
2022-09-02T07:55:55.040Z,72.46
2022-09-02T07:58:22.633Z,73.36
2022-09-02T08:00:50.133Z,72.36
2022-09-02T08:03:17.719Z,70.97
2022-09-02T08:05:47.144Z,71.02
2022-09-02T08:08:16.726Z,71.30
2022-09-02T08:10:43.344Z,70.55
2022-09-02T08:13:10.608Z,69.84
2022-09-02T08:15:39.001Z,70.06
2022-09-02T08:18:07.298Z,67.41
2022-09-02T08:20:35.612Z,67.00
2022-09-02T08:23:11.141Z,67.87
2022-09-02T08:25:39.104Z,67.95
2022-09-02T08:28:05.825Z,68.05
2022-09-02T08:30:32.676Z,68.14
2022-09-02T08:32:59.885Z,65.43
2022-09-02T08:35:26.646Z,65.25
2022-09-02T08:37:53.293Z,65.70
2022-09-02T08:40:23.418Z,65.57
2022-09-02T08:42:53.469Z,64.64
2022-09-02T08:45:32.512Z,64.43
2022-09-02T08:48:04.748Z,62.22
2022-09-02T08:50:33.027Z,62.08
2022-09-02T08:53:03.728Z,62.29
2022-09-02T08:55:44.455Z,60.71
2022-09-02T08:58:17.020Z,60.47
2022-09-02T09:00:46.187Z,61.20
2022-09-02T09:03:28.660Z,61.49
2022-09-02T09:06:19.587Z,61.71
2022-09-02T09:09:00.298Z,62.20
2022-09-02T09:11:49.063Z,60.53
2022-09-02T09:14:45.247Z,60.51
2022-09-02T09:17:28.768Z,61.23
2022-09-02T09:20:00.618Z,61.66
2022-09-02T09:22:37.440Z,61.75
2022-09-02T09:25:11.670Z,62.09
2022-09-02T09:27:38.504Z,60.74
2022-09-02T09:30:10.482Z,61.10
2022-09-02T09:32:46.460Z,60.50
2022-09-02T09:35:17.969Z,60.34
2022-09-02T09:37:48.121Z,60.16
2022-09-02T09:40:23.353Z,60.78
2022-09-02T09:43:14.694Z,60.31
2022-09-02T09:45:50.058Z,60.46
2022-09-02T09:48:16.621Z,60.84
2022-09-02T09:50:45.396Z,60.79
2022-09-02T09:53:22.829Z,60.27
2022-09-02T09:56:04.115Z,60.74
2022-09-02T09:58:39.649Z,61.35
2022-09-02T10:01:18.618Z,61.25
2022-09-02T10:04:12.216Z,61.43
2022-09-02T10:06:48.925Z,59.98
2022-09-02T10:09:15.461Z,60.50
2022-09-02T10:12:01.722Z,59.56
2022-09-02T10:14:58.034Z,59.88
2022-09-02T10:17:57.979Z,58.95
2022-09-02T10:21:04.906Z,59.73
2022-09-02T10:24:27.175Z,59.80
2022-09-02T10:26:57.436Z,60.51
2022-09-02T10:29:42.111Z,60.22
2022-09-02T10:32:27.552Z,60.69
2022-09-02T10:35:15.988Z,60.28
2022-09-02T10:38:01.876Z,59.82
2022-09-02T10:40:41.717Z,60.36
2022-09-02T10:43:11.852Z,60.59
2022-09-02T10:45:51.128Z,59.66
2022-09-02T10:48:35.904Z,59.71
2022-09-02T10:51:37.430Z,60.02
2022-09-02T10:54:10.925Z,60.31
2022-09-02T10:56:52.457Z,60.79
2022-09-02T10:59:26.826Z,60.41
2022-09-02T11:02:08.351Z,58.92
2022-09-02T11:04:56.758Z,59.71
2022-09-02T11:07:34.237Z,59.21
2022-09-02T11:10:09.234Z,59.63
2022-09-02T11:12:45.454Z,58.72
2022-09-02T11:15:18.930Z,58.95
2022-09-02T11:18:04.990Z,59.43
2022-09-02T11:20:50.848Z,59.69
2022-09-02T11:23:29.104Z,58.86
2022-09-02T11:26:04.974Z,59.70
2022-09-02T11:28:40.575Z,60.51
2022-09-02T11:31:19.194Z,60.47
2022-09-02T11:33:55.520Z,59.68
2022-09-02T11:36:22.722Z,59.76
2022-09-02T11:38:58.952Z,57.61
2022-09-02T11:41:38.035Z,57.69
2022-09-02T11:44:11.331Z,58.29
2022-09-02T11:46:49.249Z,58.27
2022-09-02T11:49:34.275Z,57.93
2022-09-02T11:52:19.557Z,57.57
2022-09-02T11:54:49.154Z,57.59
2022-09-02T11:57:23.052Z,57.81
2022-09-02T11:59:52.448Z,57.51
2022-09-02T12:02:36.256Z,56.80
2022-09-02T12:05:29.897Z,57.19
2022-09-02T12:08:04.991Z,57.41
2022-09-02T12:10:42.100Z,57.65
2022-09-02T12:13:11.398Z,57.93
2022-09-02T12:15:40.713Z,56.95
2022-09-02T12:18:12.169Z,56.97
2022-09-02T12:20:38.928Z,57.05
2022-09-02T12:23:08.232Z,56.22
2022-09-02T12:25:47.367Z,56.57
2022-09-02T12:28:19.206Z,56.19
2022-09-02T12:30:56.524Z,55.25
2022-09-02T12:33:37.664Z,55.57
2022-09-02T12:36:06.438Z,55.30
2022-09-02T12:38:40.026Z,55.07
2022-09-02T12:41:13.293Z,56.13
2022-09-02T12:43:44.667Z,55.98
2022-09-02T12:46:17.596Z,54.60
2022-09-02T12:49:03.242Z,53.87
2022-09-02T12:51:57.151Z,55.28
2022-09-02T12:54:38.581Z,55.54
2022-09-02T12:57:07.177Z,55.39
2022-09-02T12:59:37.477Z,55.66
2022-09-02T13:02:30.257Z,54.70
2022-09-02T13:05:16.144Z,54.44
2022-09-02T13:07:46.636Z,53.64
2022-09-02T13:10:50.570Z,54.39
2022-09-02T13:13:35.274Z,54.46
2022-09-02T13:16:19.000Z,55.41
2022-09-02T13:19:20.323Z,55.59
2022-09-02T13:22:14.618Z,55.13
2022-09-02T13:25:00.010Z,55.77
2022-09-02T13:27:45.080Z,56.59
2022-09-02T13:30:19.536Z,56.06
2022-09-02T13:32:56.631Z,55.11
2022-09-02T13:35:28.349Z,55.03
2022-09-02T13:37:59.810Z,55.33
2022-09-02T13:40:35.528Z,56.10
2022-09-02T13:43:24.039Z,56.47
2022-09-02T13:45:52.827Z,55.92
2022-09-02T13:48:22.964Z,56.19
2022-09-02T13:50:52.596Z,56.46
2022-09-02T13:56:25.611Z,54.57
2022-09-02T13:58:56.736Z,55.45
2022-09-02T14:01:33.175Z,55.04
2022-09-02T14:06:37.294Z,55.53
2022-09-02T14:09:07.753Z,55.45
2022-09-02T14:11:46.366Z,56.18
2022-09-02T14:14:18.636Z,55.64
2022-09-02T14:16:45.275Z,55.58
2022-09-02T14:19:24.641Z,56.31
2022-09-02T14:21:52.778Z,55.51
2022-09-02T14:24:23.887Z,55.14
2022-09-02T14:26:53.656Z,55.60
2022-09-02T14:29:21.599Z,55.80
2022-09-02T14:32:23.146Z,54.78
2022-09-02T14:35:09.202Z,55.25
2022-09-02T14:37:55.946Z,55.44
2022-09-02T14:40:37.860Z,54.71
2022-09-02T14:43:10.922Z,55.04
2022-09-02T14:45:37.701Z,54.99
2022-09-02T14:48:16.105Z,55.00
2022-09-02T14:50:43.255Z,55.39
2022-09-02T14:53:10.929Z,55.32
2022-09-02T14:55:55.164Z,55.09
2022-09-02T14:58:26.858Z,55.17
2022-09-02T15:00:55.962Z,55.58
2022-09-02T15:03:23.669Z,56.37
2022-09-02T15:05:52.384Z,56.80
2022-09-02T15:08:19.570Z,56.32
2022-09-02T15:10:46.641Z,56.75
2022-09-02T15:13:26.295Z,57.12
2022-09-02T15:15:53.223Z,55.40
2022-09-02T15:18:19.843Z,55.73
2022-09-02T15:20:46.429Z,56.29
2022-09-02T15:23:12.954Z,56.59
2022-09-02T15:25:39.859Z,56.75
2022-09-02T15:28:06.459Z,56.60
2022-09-02T15:30:36.687Z,56.94
2022-09-02T15:33:04.702Z,57.17
2022-09-02T15:35:35.059Z,57.04
2022-09-02T15:38:03.225Z,56.52
2022-09-02T15:40:31.726Z,57.13
2022-09-02T15:43:00.079Z,57.76
2022-09-02T15:45:28.144Z,57.04
2022-09-02T15:47:58.528Z,57.00
2022-09-02T15:50:26.276Z,56.70
2022-09-02T15:52:56.025Z,57.21
2022-09-02T15:55:29.168Z,57.32
2022-09-02T15:57:56.511Z,56.92
2022-09-02T16:00:23.491Z,57.25
2022-09-02T16:02:54.530Z,57.41
2022-09-02T16:05:21.404Z,56.84
2022-09-02T16:07:48.620Z,56.69
2022-09-02T16:10:15.302Z,56.46
2022-09-02T16:12:42.204Z,56.75
2022-09-02T16:15:09.217Z,56.28
2022-09-02T16:17:36.090Z,57.03
2022-09-02T16:20:04.092Z,56.56
2022-09-02T16:22:30.737Z,56.74
2022-09-02T16:24:57.268Z,56.88
2022-09-02T16:27:43.755Z,56.65
2022-09-02T16:30:10.775Z,56.97
2022-09-02T16:32:37.893Z,56.26
2022-09-02T16:35:04.727Z,55.99
2022-09-02T16:37:31.302Z,55.87
2022-09-02T16:39:57.940Z,56.00
2022-09-02T16:42:24.667Z,56.00
2022-09-02T16:44:51.855Z,56.27
2022-09-02T16:47:18.641Z,56.46
2022-09-02T16:49:46.474Z,56.10
2022-09-02T16:52:13.559Z,56.10
2022-09-02T16:54:41.264Z,56.00
2022-09-02T16:57:08.143Z,56.14
2022-09-02T16:59:34.763Z,55.97
2022-09-02T17:02:01.533Z,55.86
2022-09-02T17:04:28.161Z,55.40
2022-09-02T17:06:56.535Z,55.84
2022-09-02T17:09:23.057Z,56.59
2022-09-02T17:11:49.578Z,56.83
2022-09-02T17:14:17.984Z,58.14
2022-09-02T17:16:47.598Z,58.50
2022-09-02T17:19:20.959Z,58.16
2022-09-02T17:21:50.936Z,57.96
2022-09-02T17:24:18.829Z,57.63
2022-09-02T17:26:48.424Z,57.65
2022-09-02T17:29:46.773Z,57.70
2022-09-02T17:32:04.777Z,57.75
2022-09-02T17:34:33.687Z,57.93
2022-09-02T17:37:00.357Z,58.05
2022-09-02T17:39:27.014Z,57.91
2022-09-02T17:41:57.617Z,58.08
2022-09-02T17:44:27.202Z,57.85
2022-09-02T17:46:55.932Z,57.61
2022-09-02T17:49:22.812Z,58.35
2022-09-02T17:51:49.648Z,58.70
2022-09-02T17:54:16.289Z,58.64
2022-09-02T17:57:00.880Z,58.74
2022-09-02T17:59:32.475Z,58.59
2022-09-02T18:02:36.346Z,58.76
2022-09-02T18:05:21.688Z,59.04
2022-09-02T18:08:03.422Z,58.28
2022-09-02T18:10:33.606Z,58.47
2022-09-02T18:13:09.509Z,58.64
2022-09-02T18:15:58.982Z,58.27
2022-09-02T18:18:28.113Z,58.67
2022-09-02T18:21:04.027Z,58.79
2022-09-02T18:24:21.155Z,59.34
2022-09-02T18:26:56.710Z,59.37
2022-09-02T18:29:46.400Z,60.02
2022-09-02T18:32:40.899Z,61.48
2022-09-02T18:35:35.018Z,61.13
2022-09-02T18:38:28.537Z,61.16
2022-09-02T18:41:11.102Z,62.02
2022-09-02T18:43:59.444Z,61.68
2022-09-02T18:46:33.168Z,62.08
2022-09-02T18:49:03.212Z,62.47
2022-09-02T18:51:42.453Z,63.53
2022-09-02T18:54:23.012Z,63.59
2022-09-02T18:56:57.397Z,63.31
2022-09-02T18:59:34.056Z,62.74
2022-09-02T19:02:15.633Z,62.61
2022-09-02T19:04:42.623Z,62.64
2022-09-02T19:07:30.212Z,62.52
2022-09-02T19:10:01.092Z,62.45
2022-09-02T19:12:32.702Z,62.34
2022-09-02T19:15:00.800Z,62.88
2022-09-02T19:17:27.383Z,63.06
2022-09-02T19:19:54.053Z,63.21
2022-09-02T19:22:27.094Z,63.64
2022-09-02T19:25:02.997Z,64.00
2022-09-02T19:27:33.673Z,64.20
2022-09-02T19:30:14.828Z,64.44
2022-09-02T19:32:48.108Z,64.58
2022-09-02T19:35:18.302Z,64.87
2022-09-02T19:37:51.417Z,65.40
2022-09-02T19:40:28.608Z,65.60
2022-09-02T19:42:55.592Z,65.88
2022-09-02T19:45:23.084Z,65.87
2022-09-02T19:48:06.659Z,66.02
2022-09-02T19:50:36.202Z,66.13
2022-09-02T19:53:02.893Z,66.29
2022-09-02T19:55:29.859Z,66.32
2022-09-02T19:57:56.420Z,66.47
2022-09-02T20:00:23.082Z,66.38
2022-09-02T20:02:51.130Z,66.33
2022-09-02T20:05:18.035Z,66.40
2022-09-02T20:07:44.594Z,66.59
2022-09-02T20:10:11.569Z,66.71
2022-09-02T20:12:38.228Z,66.75
2022-09-02T20:15:06.824Z,66.85
2022-09-02T20:17:33.427Z,66.87
2022-09-02T20:20:08.582Z,67.60
2022-09-02T20:22:35.279Z,67.47
2022-09-02T20:25:01.865Z,68.04
2022-09-02T20:27:47.387Z,68.31
2022-09-02T20:30:16.380Z,67.80
2022-09-02T20:32:59.523Z,68.14
2022-09-02T20:35:44.544Z,68.44
2022-09-02T20:38:29.924Z,68.90
2022-09-02T20:41:19.666Z,69.18
2022-09-02T20:44:06.668Z,69.12
2022-09-02T20:46:58.908Z,69.62
2022-09-02T20:49:35.257Z,69.70
2022-09-02T20:52:20.451Z,69.91
2022-09-02T20:54:54.868Z,69.98
2022-09-02T20:58:19.315Z,70.22
2022-09-02T21:01:08.562Z,70.24
2022-09-02T21:03:59.305Z,70.36
2022-09-02T21:06:30.441Z,70.67
2022-09-02T21:09:05.079Z,70.71
2022-09-02T21:11:40.804Z,70.93
2022-09-02T21:14:16.227Z,71.24
2022-09-02T21:17:05.574Z,71.38
2022-09-02T21:19:39.605Z,71.46
2022-09-02T21:22:22.895Z,71.70
2022-09-02T21:25:06.688Z,71.68
2022-09-02T21:27:37.822Z,71.77
2022-09-02T21:30:08.445Z,72.11
2022-09-02T21:33:02.281Z,72.19
2022-09-02T21:35:35.661Z,72.62
2022-09-02T21:38:04.660Z,72.95
2022-09-02T21:41:05.827Z,73.85
2022-09-02T21:43:35.245Z,73.66
2022-09-02T21:46:28.871Z,74.00
2022-09-02T21:49:12.833Z,74.31
2022-09-02T21:51:53.055Z,74.60
2022-09-02T21:54:25.574Z,75.60
2022-09-02T21:57:01.116Z,76.16
2022-09-02T21:59:49.666Z,76.24
2022-09-02T22:02:25.819Z,76.79
2022-09-02T22:05:06.215Z,77.42
2022-09-02T22:07:55.576Z,77.88
2022-09-02T22:11:17.694Z,78.74
2022-09-02T22:13:45.446Z,78.96
2022-09-02T22:16:46.588Z,79.15
2022-09-02T22:19:13.625Z,78.75
2022-09-02T22:21:48.878Z,78.66
2022-09-02T22:24:27.467Z,78.38
2022-09-02T22:27:13.067Z,78.41
2022-09-02T22:29:50.126Z,78.16
2022-09-02T22:32:20.491Z,77.66
2022-09-02T22:34:59.815Z,78.00
2022-09-02T22:37:38.650Z,77.67
2022-09-02T22:40:09.923Z,77.66
2022-09-02T22:42:39.315Z,77.58
2022-09-02T22:45:31.635Z,77.19
2022-09-02T22:48:53.523Z,77.11
2022-09-02T22:51:47.686Z,77.04
2022-09-02T22:54:14.263Z,76.89
2022-09-02T22:56:49.979Z,77.05
2022-09-02T22:59:29.394Z,77.25
2022-09-02T23:02:05.852Z,77.14
2022-09-02T23:05:30.798Z,77.08
2022-09-02T23:07:57.318Z,77.33
2022-09-02T23:10:26.968Z,77.19
2022-09-02T23:13:14.143Z,77.20
2022-09-02T23:15:55.255Z,77.07
2022-09-02T23:18:29.662Z,77.10
2022-09-02T23:21:05.051Z,77.07
2022-09-02T23:23:40.031Z,77.22
2022-09-02T23:26:16.657Z,77.07
2022-09-02T23:29:14.606Z,77.50
2022-09-02T23:32:25.718Z,77.10
2022-09-02T23:35:04.221Z,76.90
2022-09-02T23:37:36.575Z,77.08
2022-09-02T23:40:14.984Z,77.06
2022-09-02T23:42:41.606Z,76.99
2022-09-02T23:45:32.844Z,77.21
2022-09-02T23:48:11.564Z,76.86
2022-09-02T23:50:47.141Z,77.45
2022-09-02T23:53:30.108Z,77.56
2022-09-02T23:56:33.596Z,77.52
2022-09-02T23:59:15.140Z,77.40
